MDT,Max TemperatureF,Mean TemperatureF,Min TemperatureF,Max Dew PointF,MeanDew PointF,Min DewpointF,Max Humidity, Mean Humidity, Min Humidity, Max Sea Level PressureIn, Mean Sea Level PressureIn, Min Sea Level PressureIn, Max VisibilityMiles, Mean VisibilityMiles, Min VisibilityMiles, Max Wind SpeedMPH, Mean Wind SpeedMPH, Max Gust SpeedMPH,PrecipitationIn, CloudCover, Events, WindDirDegrees
2013-6-1,64,48,33,21,12,7,44,25,11,30.36,30.33,30.29,10,10,10,15,3,18,0.00,0,,222
2013-6-2,69,56,42,23,18,9,42,24,11,30.35,30.27,30.18,10,10,10,24,7,37,0.00,1,,169
2013-6-3,68,60,50,30,25,18,43,27,15,30.26,30.21,30.16,10,10,10,20,4,36,0.00,3,Rain-Thunderstorm,193
2013-6-4,71,58,46,37,27,19,53,32,15,30.28,30.26,30.22,10,10,7,22,6,28,0.01,4,Rain-Thunderstorm,174
2013-6-5,69,58,46,32,24,18,53,28,15,30.31,30.28,30.24,10,10,10,21,5,28,0.00,1,,234
2013-6-6,71,58,44,30,24,18,49,29,14,30.31,30.28,30.24,10,10,10,13,5,25,0.00,1,,151
2013-6-7,69,58,46,32,27,19,53,32,15,30.31,30.27,30.20,10,10,10,17,6,29,0.00,2,,196
2013-6-8,73,60,46,34,29,21,57,32,14,30.30,30.22,30.20,10,10,10,21,6,34,0.00,1,,227
2013-6-9,78,63,48,32,26,21,50,27,12,30.37,30.34,30.30,10,10,10,15,5,25,0.00,0,,185
2013-6-10,80,66,53,30,22,16,35,20,10,30.37,30.33,30.27,10,10,10,17,7,32,0.00,0,,173
2013-6-11,73,65,55,21,18,14,26,16,10,30.42,30.35,30.32,10,10,10,17,5,29,0.00,0,,217
2013-6-12,78,64,51,30,20,12,33,20,9,30.44,30.42,30.39,10,10,10,18,7,29,0.00,0,,158
2013-6-13,73,64,55,41,27,21,55,27,14,30.42,30.39,30.30,10,10,10,20,7,36,0.00,2,Rain-Thunderstorm,152
2013-6-14,73,63,53,36,23,12,41,23,11,30.36,30.31,30.25,10,10,10,20,10,33,0.00,1,,188
2013-6-15,69,58,46,30,23,12,41,25,16,30.41,30.34,30.28,10,10,10,20,7,30,0.00,3,,162
2013-6-16,69,58,48,36,31,25,54,34,18,30.42,30.39,30.34,10,10,10,16,5,24,0.00,3,Rain-Thunderstorm,217
2013-6-17,73,62,50,30,22,14,41,24,12,30.40,30.35,30.30,10,10,10,16,6,25,0.00,3,Thunderstorm,165
2013-6-18,73,60,48,30,19,5,32,20,7,30.34,30.28,30.19,10,10,10,17,7,33,0.00,1,,145
2013-6-19,73,62,51,16,8,1,22,12,6,30.22,30.18,30.13,10,10,10,24,8,39,0.00,0,,164
2013-6-20,71,60,50,19,13,5,26,15,10,30.25,30.21,30.19,10,10,10,21,7,39,0.00,0,,156
2013-6-21,73,62,50,23,16,12,30,17,10,30.30,30.25,30.21,10,10,10,17,6,28,0.00,0,,157
2013-6-22,71,60,50,23,16,10,30,19,10,30.27,30.24,30.20,10,10,10,20,6,33,0.00,0,,176
2013-6-23,71,58,46,23,16,9,34,19,10,30.27,30.21,30.15,10,10,10,20,6,24,0.00,1,,144
2013-6-24,69,61,53,18,12,5,21,15,8,30.25,30.20,30.18,10,10,7,23,7,37,0.00,1,,159
2013-6-25,73,62,50,30,23,12,38,22,15,30.40,30.32,30.24,10,10,10,16,4,23,0.00,1,,257
2013-6-26,80,65,50,32,29,25,47,27,14,30.51,30.44,30.40,10,10,10,14,6,22,0.00,0,,166
2013-6-27,84,70,55,34,31,27,41,27,15,30.57,30.54,30.51,10,10,10,14,6,24,0.00,1,Thunderstorm,104
2013-6-28,84,70,57,36,30,21,38,23,12,30.59,30.54,30.47,10,10,7,17,5,24,0.00,1,,94
2013-6-29,80,68,57,37,34,27,44,28,15,30.54,30.48,30.39,10,10,7,13,6,24,0.00,2,Thunderstorm,144
2013-6-30,78,66,53,48,38,32,72,38,20,30.49,30.44,30.36,10,10,7,12,4,24,0.08,1,Rain-Thunderstorm,92